Terminal Aerodrome Forecast
Issued by NWS

Home | Current Version | Previous Version | Text Only | Print | Product List | Glossary On
Versions: 1 2 3 4 5 6 7 8 9 10 11 12 13 14 15 16 17 18
000
FTUS41 KBOX 051129
TAFACK
TAF
KACK 051129Z 0512/0612 17005KT P6SM OVC070
     FM051400 16008KT P6SM VCSH OVC030
     FM051600 16010KT P6SM VCSH OVC015
     FM051700 16011G18KT P6SM -RA OVC015
     FM052000 21010G20KT P6SM BKN015
     FM052200 27012G21KT P6SM BKN015
     FM052300 29013G22KT P6SM BKN250
     FM060700 33016G28KT P6SM FEW250=

USA.gov is the U.S. government's official web portal to all federal, state and local government web resources and services.